createdAt,value
2023-01-23T00:00:49.481Z,96611.06
2023-01-23T00:03:19.157Z,96605.44
2023-01-23T00:05:58.991Z,96611.19
2023-01-23T00:08:29.141Z,96598.25
2023-01-23T00:10:59.269Z,96598.13
2023-01-23T00:13:28.723Z,96590.28
2023-01-23T00:15:59.529Z,96593.44
2023-01-23T00:18:28.996Z,96609.69
2023-01-23T00:20:58.461Z,96609.41
2023-01-23T00:23:27.824Z,96609.13
2023-01-23T00:25:57.317Z,96616.44
2023-01-23T00:28:26.831Z,96614.25
2023-01-23T00:31:03.844Z,96610.78
2023-01-23T00:33:33.668Z,96609.38
2023-01-23T00:36:03.601Z,96615.16
2023-01-23T00:38:34.853Z,96614.16
2023-01-23T00:41:05.700Z,96619.38
2023-01-23T00:43:35.224Z,96619.47
2023-01-23T00:46:06.661Z,96613.00
2023-01-23T00:48:36.119Z,96612.72
2023-01-23T00:51:06.707Z,96608.81
2023-01-23T00:53:36.180Z,96613.63
2023-01-23T00:56:07.282Z,96614.16
2023-01-23T00:58:36.715Z,96605.88
2023-01-23T01:01:07.822Z,96615.94
2023-01-23T01:03:37.738Z,96609.44
2023-01-23T01:06:07.558Z,96619.59
2023-01-23T01:08:37.128Z,96620.16
2023-01-23T01:11:07.628Z,96628.69
2023-01-23T01:13:37.667Z,96632.00
2023-01-23T01:16:09.899Z,96636.16
2023-01-23T01:18:39.920Z,96632.41
2023-01-23T01:21:12.357Z,96631.97
2023-01-23T01:23:42.657Z,96638.97
2023-01-23T01:26:13.426Z,96637.94
2023-01-23T01:28:43.177Z,96639.41
2023-01-23T01:31:17.028Z,96628.00
2023-01-23T01:33:48.193Z,96633.34
2023-01-23T01:36:22.030Z,96631.94
2023-01-23T01:38:51.967Z,96635.91
2023-01-23T01:41:21.450Z,96639.91
2023-01-23T01:43:51.135Z,96635.00
2023-01-23T01:46:25.623Z,96628.63
2023-01-23T01:49:09.356Z,96630.13
2023-01-23T01:51:42.381Z,96631.63
2023-01-23T01:54:25.582Z,96619.19
2023-01-23T01:57:15.612Z,96623.59
2023-01-23T01:59:56.086Z,96611.91
2023-01-23T02:02:34.966Z,96607.91
2023-01-23T02:05:11.042Z,96611.31
2023-01-23T02:07:47.281Z,96616.47
2023-01-23T02:10:17.894Z,96614.72
2023-01-23T02:12:51.376Z,96611.34
2023-01-23T02:15:23.717Z,96608.50
2023-01-23T02:17:56.330Z,96609.91
2023-01-23T02:20:29.195Z,96608.69
2023-01-23T02:23:08.802Z,96602.91
2023-01-23T02:25:53.279Z,96611.91
2023-01-23T02:28:23.086Z,96604.19
2023-01-23T02:30:53.184Z,96603.22
2023-01-23T02:33:51.576Z,96602.06
2023-01-23T02:36:24.859Z,96599.16
2023-01-23T02:39:05.861Z,96606.75
2023-01-23T02:41:41.408Z,96608.09
2023-01-23T02:44:18.150Z,96608.78
2023-01-23T02:46:53.670Z,96596.34
2023-01-23T02:49:23.624Z,96586.38
2023-01-23T02:51:55.422Z,96576.41
2023-01-23T02:54:26.839Z,96571.16
2023-01-23T02:56:57.788Z,96574.75
2023-01-23T02:59:45.622Z,96576.41
2023-01-23T03:02:15.786Z,96580.16
2023-01-23T03:04:45.301Z,96584.56
2023-01-23T03:07:15.433Z,96606.94
2023-01-23T03:09:47.776Z,96606.31
2023-01-23T03:12:18.628Z,96605.88
2023-01-23T03:14:48.522Z,96609.63
2023-01-23T03:17:17.956Z,96619.97
2023-01-23T03:19:47.439Z,96629.22
2023-01-23T03:22:17.311Z,96620.91
2023-01-23T03:24:46.840Z,96616.03
2023-01-23T03:27:16.443Z,96626.78
2023-01-23T03:30:09.202Z,96626.44
2023-01-23T03:32:39.553Z,96624.88
2023-01-23T03:35:14.001Z,96611.44
2023-01-23T03:37:44.237Z,96615.28
2023-01-23T03:40:36.731Z,96611.38
2023-01-23T03:43:07.936Z,96610.94
2023-01-23T03:45:42.475Z,96610.44
2023-01-23T03:48:11.912Z,96607.53
2023-01-23T03:50:41.551Z,96605.41
2023-01-23T03:53:12.519Z,96603.31
2023-01-23T03:55:41.969Z,96600.38
2023-01-23T03:58:11.438Z,96607.97
2023-01-23T04:00:47.965Z,96607.97
2023-01-23T04:03:17.654Z,96604.38
2023-01-23T04:05:47.148Z,96612.94
2023-01-23T04:08:18.010Z,96614.28
2023-01-23T04:10:48.376Z,96609.66
2023-01-23T04:13:19.194Z,96616.44
2023-01-23T04:15:49.937Z,96621.38
2023-01-23T04:18:19.546Z,96618.44
2023-01-23T04:20:49.462Z,96625.06
2023-01-23T04:23:19.223Z,96610.78
2023-01-23T04:25:49.771Z,96619.34
2023-01-23T04:28:20.522Z,96630.53
2023-01-23T04:30:54.596Z,96622.34
2023-01-23T04:33:30.639Z,96622.03
2023-01-23T04:36:04.540Z,96633.03
2023-01-23T04:38:36.130Z,96620.72
2023-01-23T04:41:26.113Z,96628.47
2023-01-23T04:44:20.205Z,96628.00
2023-01-23T04:47:23.431Z,96625.06
2023-01-23T04:49:52.983Z,96619.66
2023-01-23T04:52:22.445Z,96627.38
2023-01-23T04:54:59.649Z,96628.06
2023-01-23T04:57:29.335Z,96628.88
2023-01-23T05:00:16.561Z,96624.44
2023-01-23T05:02:49.903Z,96621.66
2023-01-23T05:05:21.082Z,96618.06
2023-01-23T05:07:53.130Z,96624.13
2023-01-23T05:10:22.841Z,96630.91
2023-01-23T05:12:52.727Z,96632.53
2023-01-23T05:15:23.661Z,96625.31
2023-01-23T05:17:55.148Z,96633.03
2023-01-23T05:20:24.831Z,96635.50
2023-01-23T05:22:54.361Z,96631.06
2023-01-23T05:25:31.480Z,96628.28
2023-01-23T05:28:02.167Z,96631.75
2023-01-23T05:30:33.753Z,96631.44
2023-01-23T05:33:20.795Z,96640.69
2023-01-23T05:35:50.585Z,96651.19
2023-01-23T05:38:20.054Z,96651.03
2023-01-23T05:40:49.489Z,96653.69
2023-01-23T05:43:41.973Z,96664.72
2023-01-23T05:46:31.750Z,96661.13
2023-01-23T05:49:03.306Z,96662.75
2023-01-23T05:51:33.819Z,96657.34
2023-01-23T05:54:04.497Z,96659.81
2023-01-23T05:56:35.373Z,96665.09
2023-01-23T05:59:30.835Z,96665.09
2023-01-23T06:02:10.766Z,96659.81
2023-01-23T06:05:09.566Z,96669.53
2023-01-23T06:07:59.194Z,96677.25
2023-01-23T06:10:28.695Z,96672.81
2023-01-23T06:12:59.155Z,96671.19
2023-01-23T06:15:28.713Z,96675.63
2023-01-23T06:17:59.572Z,96679.06
2023-01-23T06:20:30.899Z,96674.63
2023-01-23T06:23:00.925Z,96671.19
2023-01-23T06:25:30.722Z,96669.38
2023-01-23T06:28:03.122Z,96684.03
2023-01-23T06:30:34.590Z,96678.91
2023-01-23T06:33:04.897Z,96689.28
2023-01-23T06:35:40.711Z,96680.56
2023-01-23T06:38:10.405Z,96683.19
2023-01-23T06:40:39.989Z,96682.03
2023-01-23T06:43:26.799Z,96677.59
2023-01-23T06:45:57.201Z,96675.78
2023-01-23T06:48:27.471Z,96665.94
2023-01-23T06:51:01.769Z,96659.84
2023-01-23T06:53:32.997Z,96662.31
2023-01-23T06:56:06.834Z,96664.78
2023-01-23T06:58:39.757Z,96668.25
2023-01-23T07:01:19.316Z,96664.63
2023-01-23T07:04:15.017Z,96664.78
2023-01-23T07:06:47.482Z,96676.00
2023-01-23T07:09:18.992Z,96674.19
2023-01-23T07:11:56.866Z,96678.31
2023-01-23T07:14:28.571Z,96679.97
2023-01-23T07:16:58.656Z,96692.16
2023-01-23T07:19:28.751Z,96685.91
2023-01-23T07:22:01.420Z,96685.91
2023-01-23T07:24:32.415Z,96686.22
2023-01-23T07:27:01.877Z,96689.00
2023-01-23T07:29:31.631Z,96704.66
2023-01-23T07:32:01.380Z,96696.44
2023-01-23T07:34:30.855Z,96698.91
2023-01-23T07:37:01.701Z,96705.84
2023-01-23T07:39:31.309Z,96697.09
2023-01-23T07:42:00.942Z,96705.84
2023-01-23T07:44:31.389Z,96710.13
2023-01-23T07:47:00.854Z,96709.97
2023-01-23T07:49:30.331Z,96712.44
2023-01-23T07:52:01.200Z,96697.47
2023-01-23T07:54:31.011Z,96705.22
2023-01-23T07:57:00.590Z,96712.81
2023-01-23T07:59:30.024Z,96710.50
2023-01-23T08:01:59.584Z,96694.53
2023-01-23T08:04:29.082Z,96688.81
2023-01-23T08:06:58.657Z,96705.94
2023-01-23T08:09:29.515Z,96701.34
2023-01-23T08:11:59.009Z,96721.13
2023-01-23T08:14:28.559Z,96717.03
2023-01-23T08:16:58.317Z,96714.06
2023-01-23T08:19:28.744Z,96724.13
2023-01-23T08:21:58.154Z,96714.25
2023-01-23T08:24:28.901Z,96718.22
2023-01-23T08:26:58.801Z,96715.44
2023-01-23T08:29:28.204Z,96703.75
2023-01-23T08:31:57.800Z,96705.25
2023-01-23T08:34:27.591Z,96706.41
2023-01-23T08:36:57.015Z,96702.13
2023-01-23T08:39:26.819Z,96700.16
2023-01-23T08:41:57.652Z,96717.44
2023-01-23T08:44:31.167Z,96715.31
2023-01-23T08:47:02.134Z,96712.53
2023-01-23T08:49:31.635Z,96721.25
2023-01-23T08:52:01.353Z,96726.06
2023-01-23T08:54:31.087Z,96724.91
2023-01-23T08:57:02.963Z,96724.75
2023-01-23T08:59:32.412Z,96711.56
2023-01-23T09:02:02.275Z,96709.59
2023-01-23T09:04:32.080Z,96715.38
2023-01-23T09:07:01.488Z,96726.59
2023-01-23T09:09:31.191Z,96728.75
2023-01-23T09:12:02.020Z,96720.31
2023-01-23T09:14:31.426Z,96725.28
2023-01-23T09:17:01.002Z,96719.53
2023-01-23T09:19:32.582Z,96717.22
2023-01-23T09:22:02.058Z,96721.34
2023-01-23T09:24:31.489Z,96712.94
2023-01-23T09:27:02.375Z,96720.69
2023-01-23T09:29:31.866Z,96726.81
2023-01-23T09:32:02.069Z,96726.63
2023-01-23T09:34:32.005Z,96720.34
2023-01-23T09:37:01.501Z,96717.38
2023-01-23T09:39:31.012Z,96720.84
2023-01-23T09:42:08.508Z,96726.47
2023-01-23T09:44:42.521Z,96729.28
2023-01-23T09:47:18.761Z,96726.47
2023-01-23T09:49:58.460Z,96706.19
2023-01-23T09:52:35.503Z,96708.34
2023-01-23T09:55:16.855Z,96707.19
2023-01-23T09:57:55.059Z,96693.00
2023-01-23T10:00:29.926Z,96692.19
2023-01-23T10:03:01.631Z,96675.84
2023-01-23T10:05:43.466Z,96683.28
2023-01-23T10:08:28.673Z,96694.13
2023-01-23T10:11:04.400Z,96707.16
2023-01-23T10:13:59.044Z,96707.34
2023-01-23T10:16:52.829Z,96695.28
2023-01-23T10:19:57.620Z,96691.00
2023-01-23T10:22:36.240Z,96691.00
2023-01-23T10:25:17.209Z,96689.19
2023-01-23T10:27:49.695Z,96681.91
2023-01-23T10:30:31.002Z,96677.31
2023-01-23T10:33:04.027Z,96681.59
2023-01-23T10:35:44.687Z,96681.75
2023-01-23T10:38:27.710Z,96674.50
2023-01-23T10:41:15.350Z,96677.97
2023-01-23T10:43:48.840Z,96676.97
2023-01-23T10:46:22.838Z,96676.81
2023-01-23T10:48:54.178Z,96668.88
2023-01-23T10:51:47.037Z,96665.25
2023-01-23T10:54:31.384Z,96664.59
2023-01-23T10:57:04.800Z,96654.53
2023-01-23T10:59:39.381Z,96657.94
2023-01-23T11:02:30.477Z,96654.97
2023-01-23T11:05:04.597Z,96654.66
2023-01-23T11:07:40.351Z,96644.22
2023-01-23T11:10:23.867Z,96637.28
2023-01-23T11:12:56.685Z,96646.97
2023-01-23T11:15:29.370Z,96636.72
2023-01-23T11:18:02.648Z,96631.41
2023-01-23T11:20:38.452Z,96627.63
2023-01-23T11:23:17.889Z,96620.81
2023-01-23T11:25:50.034Z,96625.28
2023-01-23T11:28:26.969Z,96618.19
2023-01-23T11:31:13.193Z,96612.72
2023-01-23T11:33:53.850Z,96623.13
2023-01-23T11:36:51.142Z,96612.34
2023-01-23T11:39:42.390Z,96602.59
2023-01-23T11:42:14.212Z,96605.91
2023-01-23T11:44:46.522Z,96608.53
2023-01-23T11:47:58.899Z,96607.88
2023-01-23T11:50:54.984Z,96605.06
2023-01-23T11:53:42.224Z,96597.63
2023-01-23T11:56:44.815Z,96599.09
2023-01-23T11:59:59.350Z,96602.09
2023-01-23T12:03:11.708Z,96602.09
2023-01-23T12:09:14.590Z,96603.91
2023-01-23T12:12:06.977Z,96588.88
2023-01-23T12:14:52.649Z,96590.03
2023-01-23T12:17:40.277Z,96581.66
2023-01-23T12:20:36.941Z,96575.06
2023-01-23T12:23:30.775Z,96580.34
2023-01-23T12:26:08.619Z,96575.25
2023-01-23T12:29:35.227Z,96581.34
2023-01-23T12:32:32.890Z,96574.72
2023-01-23T12:35:31.381Z,96574.84
2023-01-23T12:38:27.160Z,96571.50
2023-01-23T12:41:13.513Z,96564.88
2023-01-23T12:43:54.200Z,96563.22
2023-01-23T12:46:33.956Z,96561.22
2023-01-23T12:49:21.252Z,96569.16
2023-01-23T12:51:57.819Z,96568.00
2023-01-23T12:54:39.357Z,96559.41
2023-01-23T12:57:11.719Z,96551.13
2023-01-23T12:59:59.317Z,96551.94
2023-01-23T13:02:40.169Z,96558.72
2023-01-23T13:05:22.352Z,96552.25
2023-01-23T13:08:03.991Z,96554.81
2023-01-23T13:11:15.222Z,96554.28
2023-01-23T13:13:46.724Z,96545.00
2023-01-23T13:16:18.776Z,96545.66
2023-01-23T13:19:14.318Z,96549.78
2023-01-23T13:22:06.760Z,96551.41
2023-01-23T13:25:05.051Z,96547.97
2023-01-23T13:27:51.181Z,96551.41
2023-01-23T13:30:44.700Z,96557.06
2023-01-23T13:33:58.743Z,96549.94
2023-01-23T13:36:39.177Z,96560.69
2023-01-23T13:39:30.801Z,96569.47
2023-01-23T13:42:36.693Z,96563.34
2023-01-23T13:45:30.749Z,96559.88
2023-01-23T14:39:05.849Z,96547.59
2023-01-23T14:41:42.263Z,96543.13
2023-01-23T14:44:22.812Z,96545.75
2023-01-23T14:46:56.174Z,96543.75
2023-01-23T14:49:29.661Z,96549.53
2023-01-23T14:52:02.494Z,96546.72
2023-01-23T14:54:37.846Z,96542.06
2023-01-23T14:57:10.259Z,96541.25
2023-01-23T14:59:42.878Z,96543.88
2023-01-23T15:02:34.433Z,96554.00
2023-01-23T15:05:29.353Z,96557.28
2023-01-23T15:08:03.226Z,96554.16
2023-01-23T15:10:48.364Z,96551.69
2023-01-23T15:13:25.641Z,96555.16
2023-01-23T15:15:59.819Z,96560.94
2023-01-23T15:18:33.059Z,96555.81
2023-01-23T15:21:05.990Z,96563.56
2023-01-23T15:24:01.202Z,96559.09
2023-01-23T15:26:37.091Z,96559.28
2023-01-23T15:29:22.867Z,96563.94
2023-01-23T15:31:54.087Z,96567.22
2023-01-23T15:34:32.943Z,96564.75
2023-01-23T15:37:08.404Z,96556.00
2023-01-23T15:39:50.517Z,96564.56
2023-01-23T15:42:35.250Z,96566.56
2023-01-23T15:45:14.758Z,96559.81
2023-01-23T15:47:45.413Z,96559.63
2023-01-23T15:50:15.443Z,96563.28
2023-01-23T15:52:50.572Z,96561.84
2023-01-23T15:55:22.491Z,96572.59
2023-01-23T15:57:54.073Z,96577.69
2023-01-23T16:00:27.032Z,96588.44
2023-01-23T16:02:59.146Z,96577.03
2023-01-23T16:05:34.770Z,96587.63
2023-01-23T16:08:07.331Z,96587.44
2023-01-23T16:10:42.067Z,96577.50
2023-01-23T16:13:15.155Z,96584.59
2023-01-23T16:15:44.759Z,96585.63
2023-01-23T16:18:14.319Z,96588.06
2023-01-23T16:21:12.834Z,96587.25
2023-01-23T16:23:47.479Z,96583.44
2023-01-23T16:26:21.861Z,96591.38
2023-01-23T16:28:57.081Z,96598.66
2023-01-23T16:31:28.897Z,96605.13
2023-01-23T16:33:58.639Z,96606.94
2023-01-23T16:36:28.232Z,96605.13
2023-01-23T16:38:57.715Z,96606.78
2023-01-23T16:41:27.237Z,96603.31
2023-01-23T16:43:58.101Z,96596.81
2023-01-23T16:46:27.898Z,96597.03
2023-01-23T16:48:57.571Z,96600.66
2023-01-23T16:51:30.799Z,96603.09
2023-01-23T16:54:14.251Z,96599.84
2023-01-23T16:56:51.653Z,96597.19
2023-01-23T16:59:35.160Z,96600.03
2023-01-23T17:02:13.374Z,96595.72
2023-01-23T17:05:34.173Z,96612.06
2023-01-23T17:08:18.612Z,96602.66
2023-01-23T17:10:51.096Z,96606.13
2023-01-23T17:13:22.851Z,96597.19
2023-01-23T17:15:56.915Z,96593.91
2023-01-23T17:18:30.122Z,96604.31
2023-01-23T17:21:00.695Z,96611.03
2023-01-23T17:23:30.720Z,96609.44
2023-01-23T17:26:01.800Z,96610.25
2023-01-23T17:28:31.752Z,96605.13
2023-01-23T17:31:05.039Z,96609.22
2023-01-23T17:33:34.655Z,96611.03
2023-01-23T17:36:07.574Z,96613.06
2023-01-23T17:38:39.469Z,96611.69
2023-01-23T17:41:14.758Z,96612.34
2023-01-23T17:43:44.876Z,96608.88
2023-01-23T17:46:26.332Z,96611.03
2023-01-23T17:48:57.945Z,96618.97
2023-01-23T17:51:28.176Z,96612.69
2023-01-23T17:54:00.093Z,96620.81
2023-01-23T17:56:29.739Z,96621.81
2023-01-23T17:58:59.466Z,96620.00
2023-01-23T18:01:31.652Z,96627.09
2023-01-23T18:04:01.270Z,96626.72
2023-01-23T18:06:30.715Z,96622.28
2023-01-23T18:09:02.598Z,96623.41
2023-01-23T18:11:38.478Z,96621.56
2023-01-23T18:14:36.040Z,96622.06
2023-01-23T18:17:25.270Z,96637.28
2023-01-23T18:19:55.883Z,96632.63
2023-01-23T18:22:26.458Z,96636.09
2023-01-23T18:24:57.124Z,96635.28
2023-01-23T18:27:28.049Z,96641.56
2023-01-23T18:30:21.953Z,96641.72
2023-01-23T18:33:07.976Z,96646.19
2023-01-23T18:36:12.973Z,96648.69
2023-01-23T18:39:07.442Z,96644.56
2023-01-23T18:41:40.731Z,96644.22
2023-01-23T18:44:20.094Z,96640.09
2023-01-23T18:46:52.243Z,96651.50
2023-01-23T18:49:32.323Z,96656.78
2023-01-23T18:52:11.292Z,96649.00
2023-01-23T18:54:54.330Z,96648.38
2023-01-23T18:57:53.986Z,96662.41
2023-01-23T19:00:30.654Z,96658.94
2023-01-23T19:03:11.990Z,96661.59
2023-01-23T19:05:43.835Z,96656.13
2023-01-23T19:08:30.806Z,96664.88
2023-01-23T19:11:08.291Z,96659.75
2023-01-23T19:13:46.017Z,96667.34
2023-01-23T19:16:27.514Z,96668.66
2023-01-23T19:19:15.297Z,96673.28
2023-01-23T19:21:48.355Z,96670.81
2023-01-23T19:24:21.765Z,96666.34
2023-01-23T19:26:54.297Z,96676.13
2023-01-23T19:29:24.429Z,96670.81
2023-01-23T19:32:09.918Z,96682.56
2023-01-23T19:34:39.708Z,96685.38
2023-01-23T19:37:10.602Z,96684.56
2023-01-23T19:39:40.237Z,96683.56
2023-01-23T19:42:16.242Z,96687.19
2023-01-23T19:44:45.726Z,96683.75
2023-01-23T19:47:15.181Z,96689.50
2023-01-23T19:49:46.889Z,96687.84
2023-01-23T19:52:19.016Z,96692.16
2023-01-23T19:54:49.563Z,96694.78
2023-01-23T19:57:19.060Z,96684.22
2023-01-23T19:59:48.517Z,96698.44
2023-01-23T20:02:20.958Z,96699.09
2023-01-23T20:04:50.593Z,96702.72
2023-01-23T20:07:21.489Z,96703.91
2023-01-23T20:09:52.147Z,96704.56
2023-01-23T20:12:21.641Z,96708.03
2023-01-23T20:14:51.390Z,96708.53
2023-01-23T20:17:21.518Z,96699.78
2023-01-23T20:19:53.219Z,96709.34
2023-01-23T20:22:24.456Z,96716.47
2023-01-23T20:24:54.087Z,96726.88
2023-01-23T20:27:23.701Z,96719.75
2023-01-23T20:29:53.352Z,96716.28
2023-01-23T20:32:22.893Z,96713.00
2023-01-23T20:34:55.673Z,96725.38
2023-01-23T20:37:27.440Z,96714.81
2023-01-23T20:39:57.283Z,96721.75
2023-01-23T20:42:26.882Z,96724.41
2023-01-23T20:44:56.673Z,96726.22
2023-01-23T20:47:26.374Z,96713.16
2023-01-23T20:49:55.874Z,96722.75
2023-01-23T20:52:44.688Z,96722.09
2023-01-23T20:55:14.355Z,96724.56
2023-01-23T20:58:01.326Z,96729.69
2023-01-23T21:00:30.995Z,96728.69
2023-01-23T21:03:00.699Z,96733.63
2023-01-23T21:05:30.747Z,96729.19
2023-01-23T21:08:02.031Z,96728.34
2023-01-23T21:10:31.654Z,96713.81
2023-01-23T21:13:07.960Z,96724.22
2023-01-23T21:15:37.802Z,96736.28
2023-01-23T21:18:07.660Z,96733.81
2023-01-23T21:20:42.270Z,96737.28
2023-01-23T21:23:13.256Z,96731.81
2023-01-23T21:25:42.872Z,96733.81
2023-01-23T21:28:16.969Z,96739.75
2023-01-23T21:30:47.170Z,96734.47
2023-01-23T21:33:17.351Z,96726.69
2023-01-23T21:35:50.339Z,96727.69
2023-01-23T21:38:22.957Z,96738.75
2023-01-23T21:40:55.238Z,96743.72
2023-01-23T21:43:24.842Z,96734.78
2023-01-23T21:45:57.110Z,96740.56
2023-01-23T21:48:29.641Z,96735.28
2023-01-23T21:51:07.694Z,96741.22
2023-01-23T21:53:43.084Z,96739.25
2023-01-23T21:56:15.522Z,96735.94
2023-01-23T21:58:45.175Z,96747.50
2023-01-23T22:01:35.947Z,96741.41
2023-01-23T22:04:09.488Z,96740.25
2023-01-23T22:06:41.163Z,96745.69
2023-01-23T22:09:17.803Z,96741.22
2023-01-23T22:11:49.733Z,96741.41
2023-01-23T22:14:20.432Z,96746.84
2023-01-23T22:16:50.932Z,96751.16
2023-01-23T22:19:25.644Z,96751.16
2023-01-23T22:21:57.281Z,96751.50
2023-01-23T22:24:28.756Z,96754.63
2023-01-23T22:26:58.435Z,96752.16
2023-01-23T22:29:27.960Z,96761.41
2023-01-23T22:31:58.432Z,96765.84
2023-01-23T22:34:28.409Z,96758.09
2023-01-23T22:36:58.457Z,96772.63
2023-01-23T22:39:29.605Z,96754.13
2023-01-23T22:41:59.406Z,96761.06
2023-01-23T22:44:29.066Z,96761.06
2023-01-23T22:46:58.857Z,96758.75
2023-01-23T22:49:28.711Z,96754.28
2023-01-23T22:51:58.355Z,96759.75
2023-01-23T22:54:30.227Z,96752.81
2023-01-23T22:57:00.003Z,96758.91
2023-01-23T22:59:29.976Z,96756.28
2023-01-23T23:01:59.782Z,96765.19
2023-01-23T23:04:29.641Z,96758.91
2023-01-23T23:06:59.317Z,96765.03
2023-01-23T23:09:30.805Z,96760.75
2023-01-23T23:12:00.693Z,96767.03
2023-01-23T23:14:30.352Z,96754.97
2023-01-23T23:17:00.400Z,96759.75
2023-01-23T23:19:30.066Z,96759.75
2023-01-23T23:21:59.878Z,96758.25
2023-01-23T23:24:31.061Z,96756.09
2023-01-23T23:27:00.833Z,96755.28
2023-01-23T23:29:30.567Z,96749.34
2023-01-23T23:32:00.556Z,96747.69
2023-01-23T23:34:30.504Z,96741.22
2023-01-23T23:37:00.119Z,96744.69
2023-01-23T23:39:31.098Z,96749.81
2023-01-23T23:42:00.735Z,96748.34
2023-01-23T23:44:30.405Z,96737.09
2023-01-23T23:47:00.053Z,96732.66
2023-01-23T23:49:29.875Z,96743.56
2023-01-23T23:51:59.582Z,96745.03
2023-01-23T23:54:57.983Z,96741.41
2023-01-23T23:57:27.516Z,96741.22
2023-01-23T23:59:57.092Z,96746.84
